Time;durP1;ratioP1;P1;durP2;ratioP2;P2;SDS_P1;SDS_P2;PMS_P1;PMS_P2;Temp;Humidity;BMP_temperature;BMP_pressure;BME280_temperature;BME280_humidity;BME280_pressure;Samples;Min_cycle;Max_cycle;Signal;HPM_P1;HPM_P2
2022/08/02 00:01:48;;;;;;;0.33;0.33;;;;;;;;;;5066371;28;20257;-80
2022/08/02 00:04:16;;;;;;;0.30;0.30;;;;;;;;;;5061216;28;20205;-80
2022/08/02 00:06:45;;;;;;;0.50;0.50;;;;;;;;;;5071414;28;20201;-80
2022/08/02 00:09:15;;;;;;;0.30;0.30;;;;;;;;;;5055677;28;20263;-80
2022/08/02 00:11:43;;;;;;;0.30;0.30;;;;;;;;;;5063679;28;20252;-80
2022/08/02 00:14:12;;;;;;;0.30;0.30;;;;;;;;;;5059291;28;20209;-80
2022/08/02 00:16:40;;;;;;;0.30;0.30;;;;;;;;;;5054538;28;20205;-80
2022/08/02 00:19:08;;;;;;;0.50;0.50;;;;;;;;;;5054524;28;20229;-79
2022/08/02 00:21:37;;;;;;;0.40;0.40;;;;;;;;;;5055431;28;20197;-80
2022/08/02 00:24:05;;;;;;;0.53;0.53;;;;;;;;;;5080043;28;20201;-80
2022/08/02 00:26:55;;;;;;;0.30;0.30;;;;;;;;;;5070684;28;20199;-80
2022/08/02 00:29:24;;;;;;;0.30;0.30;;;;;;;;;;5054035;28;20253;-81
2022/08/02 00:31:52;;;;;;;0.40;0.40;;;;;;;;;;5054387;28;20308;-81
2022/08/02 00:34:20;;;;;;;0.30;0.30;;;;;;;;;;5063753;28;20190;-80
2022/08/02 00:36:59;;;;;;;0.30;0.30;;;;;;;;;;5072422;28;20229;-81
2022/08/02 00:39:27;;;;;;;0.40;0.40;;;;;;;;;;5063832;28;20200;-81
2022/08/02 00:42:04;;;;;;;0.40;0.40;;;;;;;;;;5073149;28;20195;-81
2022/08/02 00:44:32;;;;;;;0.57;0.47;;;;;;;;;;5074378;28;20201;-81
2022/08/02 00:47:01;;;;;;;0.30;0.30;;;;;;;;;;5072421;28;20211;-81
2022/08/02 00:49:29;;;;;;;0.80;0.80;;;;;;;;;;5055238;28;20198;-81
2022/08/02 00:52:00;;;;;;;0.30;0.30;;;;;;;;;;5057512;28;20259;-81
2022/08/02 00:54:28;;;;;;;1.00;1.00;;;;;;;;;;5070023;28;20198;-81
2022/08/02 00:56:57;;;;;;;0.97;0.97;;;;;;;;;;5055303;28;20210;-81
2022/08/02 00:59:26;;;;;;;0.40;0.40;;;;;;;;;;5073887;28;20243;-81
2022/08/02 01:01:55;;;;;;;0.63;0.63;;;;;;;;;;5070174;28;20195;-81
2022/08/02 01:04:26;;;;;;;0.30;0.30;;;;;;;;;;5067407;28;20209;-81
2022/08/02 01:06:59;;;;;;;0.50;0.50;;;;;;;;;;5054674;28;20210;-81
2022/08/02 01:09:27;;;;;;;0.30;0.30;;;;;;;;;;5064922;28;20251;-81
2022/08/02 01:11:56;;;;;;;0.30;0.30;;;;;;;;;;5069133;28;20195;-81
2022/08/02 01:14:31;;;;;;;0.30;0.30;;;;;;;;;;5064841;28;20241;-81
2022/08/02 01:17:03;;;;;;;0.30;0.30;;;;;;;;;;5073638;28;20197;-81
2022/08/02 01:19:35;;;;;;;0.30;0.30;;;;;;;;;;5062467;28;20228;-81
2022/08/02 01:22:27;;;;;;;0.30;0.30;;;;;;;;;;5070996;28;20206;-81
2022/08/02 01:25:25;;;;;;;0.83;0.83;;;;;;;;;;5064623;28;20263;-81
2022/08/02 01:28:06;;;;;;;0.40;0.40;;;;;;;;;;5065087;28;20198;-81
2022/08/02 01:30:35;;;;;;;0.47;0.47;;;;;;;;;;5052865;28;20226;-81
2022/08/02 01:33:05;;;;;;;0.30;0.30;;;;;;;;;;5063095;28;20217;-81
2022/08/02 01:35:37;;;;;;;0.40;0.40;;;;;;;;;;5075606;28;20264;-81
2022/08/02 01:38:22;;;;;;;1.47;1.37;;;;;;;;;;5069654;28;20195;-81
2022/08/02 01:40:51;;;;;;;0.40;0.40;;;;;;;;;;5067209;28;20191;-81
2022/08/02 01:43:22;;;;;;;0.30;0.30;;;;;;;;;;5060129;28;20207;-81
2022/08/02 01:45:51;;;;;;;0.50;0.50;;;;;;;;;;5056747;28;20213;-81
2022/08/02 01:48:20;;;;;;;1.73;1.03;;;;;;;;;;5063930;28;20210;-81
2022/08/02 01:50:49;;;;;;;1.70;1.07;;;;;;;;;;5054432;28;20225;-81
2022/08/02 01:53:19;;;;;;;0.70;0.70;;;;;;;;;;5065696;28;20232;-81
2022/08/02 01:55:49;;;;;;;1.20;1.10;;;;;;;;;;5067464;28;20193;-81
2022/08/02 01:58:28;;;;;;;0.60;0.60;;;;;;;;;;5080982;28;20198;-80
2022/08/02 02:00:57;;;;;;;0.63;0.50;;;;;;;;;;5052415;28;20247;-80
2022/08/02 02:03:27;;;;;;;0.47;0.47;;;;;;;;;;5072778;28;20217;-80
2022/08/02 02:05:56;;;;;;;0.40;0.40;;;;;;;;;;5072608;28;20202;-80
2022/08/02 02:08:26;;;;;;;0.30;0.30;;;;;;;;;;5058478;28;20212;-80
2022/08/02 02:10:55;;;;;;;0.50;0.50;;;;;;;;;;5060282;28;20217;-80
2022/08/02 02:13:25;;;;;;;0.70;0.70;;;;;;;;;;5052270;28;20210;-80
2022/08/02 02:16:04;;;;;;;0.50;0.50;;;;;;;;;;5061814;28;20356;-80
2022/08/02 02:18:39;;;;;;;0.30;0.30;;;;;;;;;;5057333;28;20205;-81
2022/08/02 02:21:07;;;;;;;0.63;0.57;;;;;;;;;;5059718;28;20206;-81
2022/08/02 02:23:36;;;;;;;0.63;0.60;;;;;;;;;;5053335;28;20190;-81
2022/08/02 02:26:05;;;;;;;0.40;0.40;;;;;;;;;;5052360;28;20197;-80
2022/08/02 02:28:37;;;;;;;0.57;0.57;;;;;;;;;;5056139;28;20201;-80
2022/08/02 02:31:08;;;;;;;1.13;0.90;;;;;;;;;;5061681;28;20203;-80
2022/08/02 02:33:39;;;;;;;0.43;0.43;;;;;;;;;;5052392;28;20210;-80
2022/08/02 02:36:09;;;;;;;0.57;0.57;;;;;;;;;;5058258;28;20225;-81
2022/08/02 02:38:39;;;;;;;0.90;0.90;;;;;;;;;;5068669;28;20326;-81
2022/08/02 02:41:07;;;;;;;1.20;1.10;;;;;;;;;;5052289;28;20194;-81
2022/08/02 02:43:37;;;;;;;1.43;1.43;;;;;;;;;;5067663;28;20205;-81
2022/08/02 02:46:06;;;;;;;1.07;0.40;;;;;;;;;;5068969;28;20282;-81
2022/08/02 02:48:36;;;;;;;0.63;0.63;;;;;;;;;;5052596;28;20208;-80
2022/08/02 02:51:05;;;;;;;1.20;1.07;;;;;;;;;;5065063;28;20202;-81
2022/08/02 02:53:41;;;;;;;0.70;0.70;;;;;;;;;;5052032;28;20248;-81
2022/08/02 02:56:30;;;;;;;1.40;1.10;;;;;;;;;;5051638;28;20210;-81
2022/08/02 02:58:59;;;;;;;4.07;1.40;;;;;;;;;;5067936;28;20207;-81
2022/08/02 03:01:29;;;;;;;1.30;1.10;;;;;;;;;;5052978;28;20290;-81
2022/08/02 03:04:19;;;;;;;1.30;0.93;;;;;;;;;;5062955;28;20261;-81
2022/08/02 03:06:48;;;;;;;1.07;0.97;;;;;;;;;;5075002;28;20201;-81
2022/08/02 03:09:16;;;;;;;0.80;0.80;;;;;;;;;;5072832;28;20205;-81
2022/08/02 03:11:45;;;;;;;2.43;1.47;;;;;;;;;;5071908;28;20223;-81
2022/08/02 03:14:14;;;;;;;1.40;1.30;;;;;;;;;;5073254;28;20206;-81
2022/08/02 03:16:42;;;;;;;4.47;1.43;;;;;;;;;;5067594;28;20221;-81
2022/08/02 03:19:11;;;;;;;1.83;1.37;;;;;;;;;;5051795;28;20220;-81
2022/08/02 03:21:41;;;;;;;1.70;1.60;;;;;;;;;;5065123;28;20260;-81
2022/08/02 03:24:10;;;;;;;0.57;0.57;;;;;;;;;;5061367;28;20190;-81
2022/08/02 03:26:38;;;;;;;2.53;1.67;;;;;;;;;;5070818;28;20204;-81
2022/08/02 03:29:07;;;;;;;4.97;1.10;;;;;;;;;;5052019;28;20233;-81
2022/08/02 03:31:40;;;;;;;1.43;1.33;;;;;;;;;;5069498;28;20221;-81
2022/08/02 03:34:08;;;;;;;1.23;1.13;;;;;;;;;;5063094;28;20210;-81
2022/08/02 03:36:36;;;;;;;2.27;1.37;;;;;;;;;;5075681;28;20216;-81
2022/08/02 03:39:07;;;;;;;1.57;1.47;;;;;;;;;;5055343;28;20194;-81
2022/08/02 03:41:36;;;;;;;1.57;1.43;;;;;;;;;;5056440;28;20235;-81
2022/08/02 03:44:05;;;;;;;1.50;1.40;;;;;;;;;;5070284;28;20214;-81
2022/08/02 03:46:38;;;;;;;2.83;1.63;;;;;;;;;;5067218;28;20209;-81
2022/08/02 03:49:07;;;;;;;3.27;1.30;;;;;;;;;;5070545;28;20212;-81
2022/08/02 03:51:35;;;;;;;2.40;1.07;;;;;;;;;;5056414;28;20216;-81
2022/08/02 03:54:04;;;;;;;3.17;1.60;;;;;;;;;;5072668;28;20206;-81
2022/08/02 03:56:34;;;;;;;1.77;1.57;;;;;;;;;;5066083;28;20209;-81
2022/08/02 03:59:06;;;;;;;2.93;1.17;;;;;;;;;;5071780;28;20240;-81
2022/08/02 04:01:35;;;;;;;1.97;0.97;;;;;;;;;;5085365;28;20279;-81
2022/08/02 04:04:03;;;;;;;3.43;1.57;;;;;;;;;;5067856;28;20262;-81
2022/08/02 04:06:32;;;;;;;2.73;1.40;;;;;;;;;;5071297;28;20209;-81
2022/08/02 04:09:00;;;;;;;3.43;1.50;;;;;;;;;;5054937;28;20199;-81
2022/08/02 04:11:30;;;;;;;4.13;1.60;;;;;;;;;;5055950;28;20202;-81
2022/08/02 04:14:01;;;;;;;2.00;1.60;;;;;;;;;;5060848;28;20222;-81
2022/08/02 04:16:35;;;;;;;1.77;1.33;;;;;;;;;;5057553;28;20203;-81
2022/08/02 04:19:05;;;;;;;1.80;1.70;;;;;;;;;;5065378;28;20193;-81
2022/08/02 04:21:35;;;;;;;1.83;1.73;;;;;;;;;;5068518;28;20259;-81
2022/08/02 04:24:21;;;;;;;1.67;1.50;;;;;;;;;;5065335;28;20199;-81
2022/08/02 04:26:52;;;;;;;3.00;2.00;;;;;;;;;;5056748;28;20243;-81
2022/08/02 04:29:23;;;;;;;9.73;2.03;;;;;;;;;;5064528;28;20259;-80
2022/08/02 04:31:52;;;;;;;1.63;1.50;;;;;;;;;;5072738;28;20213;-81
2022/08/02 04:34:20;;;;;;;2.37;2.17;;;;;;;;;;5063448;28;20211;-81
2022/08/02 04:36:49;;;;;;;4.60;1.60;;;;;;;;;;5058735;28;20206;-80
2022/08/02 04:39:17;;;;;;;3.30;1.60;;;;;;;;;;5054526;28;20201;-80
2022/08/02 04:41:46;;;;;;;2.40;1.20;;;;;;;;;;5073361;28;20251;-81
2022/08/02 04:44:15;;;;;;;2.93;1.80;;;;;;;;;;5061280;28;20203;-80
2022/08/02 04:46:46;;;;;;;3.40;1.90;;;;;;;;;;5061091;28;20231;-80
2022/08/02 04:49:14;;;;;;;1.40;1.30;;;;;;;;;;5054142;28;20205;-81
2022/08/02 04:51:43;;;;;;;1.60;1.50;;;;;;;;;;5067453;28;20211;-81
2022/08/02 04:54:12;;;;;;;1.33;1.23;;;;;;;;;;5069518;28;20203;-80
2022/08/02 04:56:40;;;;;;;2.30;1.93;;;;;;;;;;5054665;28;20210;-80
2022/08/02 04:59:11;;;;;;;2.13;1.50;;;;;;;;;;5053724;28;20202;-80
2022/08/02 05:01:41;;;;;;;5.10;1.80;;;;;;;;;;5053483;28;20230;-80
2022/08/02 05:04:10;;;;;;;1.67;1.50;;;;;;;;;;5053895;28;20261;-81
2022/08/02 05:06:39;;;;;;;1.60;1.50;;;;;;;;;;5053579;28;20224;-80
2022/08/02 05:09:07;;;;;;;1.60;1.50;;;;;;;;;;5066390;28;20222;-80
2022/08/02 05:11:36;;;;;;;2.67;1.87;;;;;;;;;;5055682;28;20226;-81
2022/08/02 05:14:05;;;;;;;2.27;2.00;;;;;;;;;;5053050;28;20202;-80
2022/08/02 05:16:33;;;;;;;3.40;1.80;;;;;;;;;;5053071;28;20221;-80
2022/08/02 05:19:02;;;;;;;8.57;2.20;;;;;;;;;;5053249;28;20202;-80
2022/08/02 05:21:32;;;;;;;2.90;1.50;;;;;;;;;;5053170;28;20209;-80
2022/08/02 05:24:00;;;;;;;2.67;1.63;;;;;;;;;;5061605;28;20206;-81
2022/08/02 05:26:29;;;;;;;1.23;1.13;;;;;;;;;;5072747;28;20193;-80
2022/08/02 05:28:57;;;;;;;2.00;1.27;;;;;;;;;;5052928;28;20223;-80
2022/08/02 05:31:26;;;;;;;8.07;2.33;;;;;;;;;;5069827;28;20211;-80
2022/08/02 05:33:54;;;;;;;2.03;1.60;;;;;;;;;;5072569;28;20203;-80
2022/08/02 05:36:22;;;;;;;4.67;3.00;;;;;;;;;;5060863;28;20229;-81
2022/08/02 05:38:52;;;;;;;3.03;1.80;;;;;;;;;;5058187;28;20210;-80
2022/08/02 05:41:32;;;;;;;3.30;2.50;;;;;;;;;;5060336;28;20214;-80
2022/08/02 05:44:01;;;;;;;6.00;3.03;;;;;;;;;;5058197;28;20186;-80
2022/08/02 05:46:29;;;;;;;3.43;1.70;;;;;;;;;;5063119;28;20198;-80
2022/08/02 05:48:57;;;;;;;2.70;1.77;;;;;;;;;;5052959;28;20200;-79
2022/08/02 05:51:29;;;;;;;1.50;1.40;;;;;;;;;;5059349;28;20208;-79
2022/08/02 05:54:03;;;;;;;4.40;2.27;;;;;;;;;;5066203;28;20209;-79
2022/08/02 05:56:35;;;;;;;2.17;1.97;;;;;;;;;;5052777;28;20261;-79
2022/08/02 05:59:04;;;;;;;2.77;1.47;;;;;;;;;;5052835;28;20202;-79
2022/08/02 06:01:35;;;;;;;4.30;2.20;;;;;;;;;;5072329;28;20203;-79
2022/08/02 06:04:06;;;;;;;3.50;3.20;;;;;;;;;;5081370;28;20198;-79
2022/08/02 06:06:35;;;;;;;2.00;1.90;;;;;;;;;;5072865;28;20209;-79
2022/08/02 06:09:09;;;;;;;6.43;1.60;;;;;;;;;;5069358;28;20272;-79
2022/08/02 06:11:38;;;;;;;5.13;1.90;;;;;;;;;;5069079;28;20210;-79
2022/08/02 06:14:08;;;;;;;1.07;0.93;;;;;;;;;;5063291;28;20197;-79
2022/08/02 06:16:37;;;;;;;4.37;2.40;;;;;;;;;;5056363;28;20306;-79
2022/08/02 06:19:10;;;;;;;3.73;2.23;;;;;;;;;;5052884;28;20201;-79
2022/08/02 06:21:39;;;;;;;3.77;3.10;;;;;;;;;;5052419;28;20202;-79
2022/08/02 06:24:31;;;;;;;1.97;1.83;;;;;;;;;;5052493;28;20226;-80
2022/08/02 06:27:00;;;;;;;1.70;1.60;;;;;;;;;;5053366;28;20693;-80
2022/08/02 06:29:29;;;;;;;2.63;2.07;;;;;;;;;;5059886;28;20261;-79
2022/08/02 06:32:02;;;;;;;3.97;2.37;;;;;;;;;;5067294;28;20205;-79
2022/08/02 06:34:31;;;;;;;6.17;2.30;;;;;;;;;;5053137;28;20231;-79
2022/08/02 06:37:03;;;;;;;4.57;2.60;;;;;;;;;;5052510;28;20225;-80
2022/08/02 06:39:36;;;;;;;3.40;2.00;;;;;;;;;;5062312;28;20193;-79
2022/08/02 06:42:07;;;;;;;2.93;2.30;;;;;;;;;;5072331;28;20205;-80
2022/08/02 06:44:37;;;;;;;3.80;2.17;;;;;;;;;;5063371;28;20279;-80
2022/08/02 06:47:18;;;;;;;2.83;2.47;;;;;;;;;;5055771;28;20210;-80
2022/08/02 06:49:46;;;;;;;3.37;2.17;;;;;;;;;;5063034;28;20201;-80
2022/08/02 06:52:22;;;;;;;0.97;0.97;;;;;;;;;;5069156;28;20292;-80
2022/08/02 06:54:57;;;;;;;0.70;0.70;;;;;;;;;;5060471;28;20296;-78
2022/08/02 06:57:26;;;;;;;1.47;1.37;;;;;;;;;;5056636;28;20208;-79
2022/08/02 06:59:54;;;;;;;7.13;3.37;;;;;;;;;;5057437;28;20201;-79
2022/08/02 07:02:23;;;;;;;2.03;1.43;;;;;;;;;;5054215;28;20203;-79
2022/08/02 07:04:51;;;;;;;3.07;2.77;;;;;;;;;;5067671;28;20209;-78
2022/08/02 07:07:20;;;;;;;1.90;1.70;;;;;;;;;;5057070;28;20191;-79
2022/08/02 07:09:50;;;;;;;5.93;1.30;;;;;;;;;;5061218;28;20194;-80
2022/08/02 07:12:30;;;;;;;0.60;0.60;;;;;;;;;;5062519;28;20201;-80
2022/08/02 07:14:59;;;;;;;1.93;1.70;;;;;;;;;;5068003;28;20236;-79
2022/08/02 07:17:27;;;;;;;2.57;2.17;;;;;;;;;;5058587;28;20216;-79
2022/08/02 07:19:56;;;;;;;1.40;1.30;;;;;;;;;;5065092;28;20205;-79
2022/08/02 07:22:25;;;;;;;2.23;1.97;;;;;;;;;;5065529;28;20200;-79
2022/08/02 07:24:55;;;;;;;1.83;1.67;;;;;;;;;;5060177;28;20347;-79
2022/08/02 07:27:24;;;;;;;3.00;1.07;;;;;;;;;;5057963;28;20209;-79
2022/08/02 07:29:54;;;;;;;1.27;0.93;;;;;;;;;;5064497;28;20244;-79
2022/08/02 07:32:24;;;;;;;1.00;1.00;;;;;;;;;;5058437;28;20232;-80
2022/08/02 07:34:54;;;;;;;1.03;1.03;;;;;;;;;;5058615;28;20278;-79
2022/08/02 07:37:24;;;;;;;2.80;2.30;;;;;;;;;;5057610;28;20235;-79
2022/08/02 07:40:13;;;;;;;2.27;1.50;;;;;;;;;;5059507;28;20273;-78
2022/08/02 07:42:48;;;;;;;3.80;1.80;;;;;;;;;;5071946;28;20240;-78
2022/08/02 07:45:21;;;;;;;5.60;2.17;;;;;;;;;;5059990;28;20300;-78
2022/08/02 07:47:50;;;;;;;2.87;2.67;;;;;;;;;;5076317;28;20205;-78
2022/08/02 07:50:19;;;;;;;2.27;2.07;;;;;;;;;;5067078;28;20212;-78
2022/08/02 07:52:48;;;;;;;2.20;1.30;;;;;;;;;;5061556;28;20195;-78
2022/08/02 07:55:17;;;;;;;2.67;2.40;;;;;;;;;;5059393;28;20288;-78
2022/08/02 07:57:46;;;;;;;1.57;1.40;;;;;;;;;;5068201;28;20245;-78
2022/08/02 08:00:16;;;;;;;2.10;1.90;;;;;;;;;;5061014;28;20214;-79
2022/08/02 08:02:46;;;;;;;1.47;1.03;;;;;;;;;;5068625;28;20194;-79
2022/08/02 08:05:15;;;;;;;2.67;2.40;;;;;;;;;;5059575;28;20214;-79
2022/08/02 08:07:45;;;;;;;7.97;3.50;;;;;;;;;;5073408;28;20236;-79
2022/08/02 08:10:14;;;;;;;1.40;1.30;;;;;;;;;;5068808;28;20195;-79
2022/08/02 08:12:42;;;;;;;1.67;1.47;;;;;;;;;;5066435;28;20203;-79
2022/08/02 08:15:11;;;;;;;2.80;1.67;;;;;;;;;;5063133;28;20210;-78
2022/08/02 08:17:39;;;;;;;2.67;2.43;;;;;;;;;;5065793;28;20210;-80
2022/08/02 08:20:09;;;;;;;1.50;1.40;;;;;;;;;;5062500;28;20194;-79
2022/08/02 08:22:43;;;;;;;6.17;3.90;;;;;;;;;;5054566;28;20209;-79
2022/08/02 08:25:11;;;;;;;1.23;0.93;;;;;;;;;;5060447;28;20209;-78
2022/08/02 08:27:47;;;;;;;4.60;4.10;;;;;;;;;;5059328;28;20210;-79
2022/08/02 08:30:16;;;;;;;4.63;3.07;;;;;;;;;;5063296;28;20252;-78
2022/08/02 08:32:45;;;;;;;3.73;2.37;;;;;;;;;;5061771;28;20240;-79
2022/08/02 08:35:14;;;;;;;1.63;1.53;;;;;;;;;;5063055;28;20233;-78
2022/08/02 08:37:44;;;;;;;3.07;2.17;;;;;;;;;;5056316;28;20229;-79
2022/08/02 08:40:13;;;;;;;3.27;1.47;;;;;;;;;;5060898;28;20212;-78
2022/08/02 08:42:47;;;;;;;5.70;3.13;;;;;;;;;;5060131;28;20280;-78
2022/08/02 08:45:16;;;;;;;5.37;3.30;;;;;;;;;;5064742;28;20212;-78
2022/08/02 08:47:47;;;;;;;5.53;3.07;;;;;;;;;;5058542;28;20202;-79
2022/08/02 08:50:19;;;;;;;2.67;1.63;;;;;;;;;;5056056;28;20212;-78
2022/08/02 08:52:54;;;;;;;1.00;1.00;;;;;;;;;;5058689;28;20209;-78
2022/08/02 08:55:23;;;;;;;0.73;0.73;;;;;;;;;;5058902;28;20231;-78
2022/08/02 08:57:53;;;;;;;1.93;1.73;;;;;;;;;;5060529;28;20224;-78
2022/08/02 09:00:22;;;;;;;7.30;0.97;;;;;;;;;;5062265;28;20214;-78
2022/08/02 09:02:50;;;;;;;1.60;1.50;;;;;;;;;;5063883;28;20209;-78
2022/08/02 09:05:20;;;;;;;1.07;1.03;;;;;;;;;;5059877;28;20224;-78
2022/08/02 09:07:49;;;;;;;2.17;1.20;;;;;;;;;;5062816;28;20197;-79
2022/08/02 09:10:34;;;;;;;2.83;2.10;;;;;;;;;;5064755;28;20201;-79
2022/08/02 09:13:14;;;;;;;2.57;2.33;;;;;;;;;;5056294;28;20206;-78
2022/08/02 09:16:04;;;;;;;3.00;2.30;;;;;;;;;;5056785;28;20206;-78
2022/08/02 09:18:42;;;;;;;1.23;1.13;;;;;;;;;;5058028;28;20202;-79
2022/08/02 09:21:13;;;;;;;2.70;2.50;;;;;;;;;;5061060;28;20288;-78
2022/08/02 09:23:42;;;;;;;2.30;1.63;;;;;;;;;;5066689;28;20216;-79
2022/08/02 09:26:12;;;;;;;1.13;1.07;;;;;;;;;;5066057;28;20197;-78
2022/08/02 09:28:41;;;;;;;1.70;1.60;;;;;;;;;;5056568;28;20197;-78
2022/08/02 09:31:10;;;;;;;3.33;2.30;;;;;;;;;;5060181;28;20204;-78
2022/08/02 09:33:39;;;;;;;2.43;1.53;;;;;;;;;;5063723;28;20259;-78
2022/08/02 09:36:11;;;;;;;2.90;2.23;;;;;;;;;;5068456;28;20274;-78
2022/08/02 09:38:41;;;;;;;3.03;2.73;;;;;;;;;;5066610;28;20225;-78
2022/08/02 09:41:20;;;;;;;4.47;2.27;;;;;;;;;;5054946;28;20209;-78
2022/08/02 09:43:49;;;;;;;3.53;2.73;;;;;;;;;;5056439;28;20203;-86
2022/08/02 09:46:35;;;;;;;9.10;3.23;;;;;;;;;;5069278;28;20229;-83
2022/08/02 09:49:04;;;;;;;3.27;2.90;;;;;;;;;;5058236;28;20198;-83
2022/08/02 09:51:34;;;;;;;2.57;2.20;;;;;;;;;;5054890;28;20221;-83
2022/08/02 09:54:06;;;;;;;7.50;4.87;;;;;;;;;;5056787;28;20195;-78
2022/08/02 09:56:41;;;;;;;4.77;3.97;;;;;;;;;;5062381;28;20255;-78
2022/08/02 09:59:09;;;;;;;6.37;5.43;;;;;;;;;;5054493;28;20224;-79
2022/08/02 10:01:38;;;;;;;5.33;4.83;;;;;;;;;;5062115;28;20205;-78
2022/08/02 10:04:20;;;;;;;2.63;2.43;;;;;;;;;;5054280;28;20224;-78
2022/08/02 10:06:53;;;;;;;4.67;3.87;;;;;;;;;;5057430;28;20274;-78
2022/08/02 10:09:23;;;;;;;5.10;3.17;;;;;;;;;;5065158;28;20261;-78
2022/08/02 10:11:52;;;;;;;6.63;5.07;;;;;;;;;;5059262;28;20250;-79
2022/08/02 10:14:20;;;;;;;6.90;4.93;;;;;;;;;;5060744;28;20222;-80
2022/08/02 10:16:49;;;;;;;3.00;2.80;;;;;;;;;;5061233;28;20245;-79
2022/08/02 10:19:17;;;;;;;3.33;3.03;;;;;;;;;;5058446;28;20206;-79
2022/08/02 10:22:06;;;;;;;4.23;3.40;;;;;;;;;;5052961;28;20203;-79
2022/08/02 10:24:38;;;;;;;4.90;2.40;;;;;;;;;;5068463;28;20253;-79
2022/08/02 10:27:15;;;;;;;5.47;3.57;;;;;;;;;;5056675;28;20250;-79
2022/08/02 10:29:46;;;;;;;3.13;2.23;;;;;;;;;;5061526;28;20239;-80
2022/08/02 10:32:24;;;;;;;3.90;3.57;;;;;;;;;;5062063;28;20199;-79
2022/08/02 10:34:54;;;;;;;7.70;4.87;;;;;;;;;;5057177;28;20218;-79
2022/08/02 10:37:29;;;;;;;4.53;2.13;;;;;;;;;;5059582;28;20273;-79
2022/08/02 10:39:59;;;;;;;4.67;3.87;;;;;;;;;;5061220;28;20234;-79
2022/08/02 10:42:45;;;;;;;5.00;3.00;;;;;;;;;;5056015;28;20212;-79
2022/08/02 10:45:14;;;;;;;2.00;1.90;;;;;;;;;;5055078;28;20226;-80
2022/08/02 10:47:57;;;;;;;4.17;3.77;;;;;;;;;;5054356;28;20312;-78
2022/08/02 10:50:40;;;;;;;8.83;2.80;;;;;;;;;;5053725;28;20267;-80
2022/08/02 10:53:25;;;;;;;4.20;3.13;;;;;;;;;;5059511;28;20217;-79
2022/08/02 10:55:54;;;;;;;3.63;3.40;;;;;;;;;;5057178;28;20291;-79
2022/08/02 10:58:23;;;;;;;5.47;3.03;;;;;;;;;;5071450;28;20241;-79
2022/08/02 11:00:57;;;;;;;4.03;3.03;;;;;;;;;;5059920;28;20216;-78
2022/08/02 11:03:38;;;;;;;4.73;3.17;;;;;;;;;;5055802;28;20213;-79
2022/08/02 11:06:08;;;;;;;3.83;3.17;;;;;;;;;;5055300;28;20191;-79
2022/08/02 11:09:25;;;;;;;3.63;2.87;;;;;;;;;;5054369;28;20293;-78
2022/08/02 11:12:04;;;;;;;5.17;3.73;;;;;;;;;;5054259;28;20210;-79
2022/08/02 11:14:34;;;;;;;2.67;2.47;;;;;;;;;;5058796;28;20198;-80
2022/08/02 11:17:06;;;;;;;4.53;3.43;;;;;;;;;;5057230;28;20215;-78
2022/08/02 11:19:35;;;;;;;2.40;2.03;;;;;;;;;;5058934;28;20227;-78
2022/08/02 11:22:15;;;;;;;3.73;2.97;;;;;;;;;;5059109;28;20207;-78
2022/08/02 11:24:47;;;;;;;4.03;2.83;;;;;;;;;;5058599;28;20206;-78
2022/08/02 11:27:20;;;;;;;2.03;1.93;;;;;;;;;;5059196;28;20196;-78
2022/08/02 11:29:49;;;;;;;2.43;2.17;;;;;;;;;;5068927;28;20324;-78
2022/08/02 11:32:18;;;;;;;4.20;2.57;;;;;;;;;;5055990;28;20208;-79
2022/08/02 11:34:48;;;;;;;4.13;3.73;;;;;;;;;;5063436;28;20273;-79
2022/08/02 11:37:28;;;;;;;8.03;3.13;;;;;;;;;;5061905;28;20191;-78
2022/08/02 11:39:56;;;;;;;4.47;2.40;;;;;;;;;;5062783;28;20196;-79
2022/08/02 11:42:33;;;;;;;3.07;2.13;;;;;;;;;;5063138;28;20199;-79
2022/08/02 11:45:01;;;;;;;10.13;2.77;;;;;;;;;;5063838;28;20228;-79
2022/08/02 11:47:31;;;;;;;3.50;2.93;;;;;;;;;;5054089;28;20220;-79
2022/08/02 11:50:05;;;;;;;2.20;1.67;;;;;;;;;;5054535;28;20207;-80
2022/08/02 11:52:34;;;;;;;2.63;1.70;;;;;;;;;;5071960;28;20216;-79
2022/08/02 11:55:02;;;;;;;2.27;2.07;;;;;;;;;;5060617;28;20235;-79
2022/08/02 11:57:32;;;;;;;6.50;2.40;;;;;;;;;;5061817;28;20210;-78
2022/08/02 12:00:21;;;;;;;3.10;1.57;;;;;;;;;;5068483;28;20203;-78
2022/08/02 12:02:54;;;;;;;1.60;1.50;;;;;;;;;;5056033;28;20219;-79
2022/08/02 12:05:23;;;;;;;4.93;2.37;;;;;;;;;;5054579;28;20209;-79
2022/08/02 12:08:12;;;;;;;4.10;1.70;;;;;;;;;;5059223;28;20223;-80
2022/08/02 12:10:47;;;;;;;3.57;1.63;;;;;;;;;;5060991;28;20260;-79
2022/08/02 12:13:17;;;;;;;2.83;2.17;;;;;;;;;;5056697;28;20199;-78
2022/08/02 12:15:46;;;;;;;3.10;2.17;;;;;;;;;;5060045;28;20203;-79
2022/08/02 12:21:01;;;;;;;1.53;1.20;;;;;;;;;;5060266;28;20203;-78
2022/08/02 12:23:30;;;;;;;3.20;1.60;;;;;;;;;;5062751;28;20203;-79
2022/08/02 12:26:03;;;;;;;5.60;2.40;;;;;;;;;;5064586;28;20247;-78
2022/08/02 12:28:35;;;;;;;1.60;1.50;;;;;;;;;;5067182;28;20182;-78
2022/08/02 12:31:03;;;;;;;1.97;1.17;;;;;;;;;;5054412;28;20255;-79
2022/08/02 12:33:45;;;;;;;2.50;1.93;;;;;;;;;;5062446;28;20248;-78
2022/08/02 12:36:17;;;;;;;3.17;2.27;;;;;;;;;;5061376;28;20302;-79
2022/08/02 12:38:52;;;;;;;2.90;1.53;;;;;;;;;;5055860;28;20216;-78
2022/08/02 12:41:20;;;;;;;2.53;1.90;;;;;;;;;;5061009;28;20223;-79
2022/08/02 12:44:01;;;;;;;0.80;0.80;;;;;;;;;;5065519;28;20205;-79
2022/08/02 12:46:30;;;;;;;1.60;1.43;;;;;;;;;;5059249;28;20223;-79
2022/08/02 12:49:15;;;;;;;6.33;2.30;;;;;;;;;;5057131;28;20210;-79
2022/08/02 12:51:47;;;;;;;8.67;2.40;;;;;;;;;;5058640;28;20194;-78
2022/08/02 12:54:27;;;;;;;4.40;2.60;;;;;;;;;;5058799;28;20205;-78
2022/08/02 12:56:59;;;;;;;7.07;2.00;;;;;;;;;;5076399;28;20193;-78
2022/08/02 12:59:36;;;;;;;5.33;2.43;;;;;;;;;;5064262;28;20220;-79
2022/08/02 13:02:07;;;;;;;3.40;2.63;;;;;;;;;;5078916;28;20211;-79
2022/08/02 13:04:35;;;;;;;2.53;1.77;;;;;;;;;;5068205;28;20218;-79
2022/08/02 13:07:05;;;;;;;2.40;2.20;;;;;;;;;;5067913;28;20201;-79
2022/08/02 13:09:36;;;;;;;2.80;2.23;;;;;;;;;;5061325;28;20210;-79
2022/08/02 13:12:05;;;;;;;2.80;1.87;;;;;;;;;;5070640;28;20200;-79
2022/08/02 13:14:34;;;;;;;3.90;1.07;;;;;;;;;;5067898;28;20206;-78
2022/08/02 13:17:11;;;;;;;3.37;2.13;;;;;;;;;;5069829;28;20205;-79
2022/08/02 13:19:41;;;;;;;2.07;1.60;;;;;;;;;;5060143;28;20222;-80
2022/08/02 13:22:10;;;;;;;8.03;2.00;;;;;;;;;;5056078;28;20208;-80
2022/08/02 13:24:40;;;;;;;4.23;2.63;;;;;;;;;;5064216;28;20200;-80
2022/08/02 13:27:24;;;;;;;2.43;1.20;;;;;;;;;;5061695;28;20211;-79
2022/08/02 13:29:53;;;;;;;4.27;1.97;;;;;;;;;;5055097;28;20236;-81
2022/08/02 13:32:27;;;;;;;4.93;2.20;;;;;;;;;;5064572;28;20210;-79
2022/08/02 13:34:59;;;;;;;3.43;1.67;;;;;;;;;;5062406;28;20251;-79
2022/08/02 13:37:28;;;;;;;2.40;1.87;;;;;;;;;;5067710;28;20308;-79
2022/08/02 13:40:00;;;;;;;3.90;1.80;;;;;;;;;;5054029;28;20220;-79
2022/08/02 13:42:51;;;;;;;1.97;1.77;;;;;;;;;;5053048;28;20215;-82
2022/08/02 13:45:19;;;;;;;3.17;2.47;;;;;;;;;;5066233;28;20203;-82
2022/08/02 13:47:49;;;;;;;1.97;1.20;;;;;;;;;;5061967;28;20314;-80
2022/08/02 13:50:32;;;;;;;2.37;1.17;;;;;;;;;;5065456;28;20234;-81
2022/08/02 13:53:00;;;;;;;4.43;2.40;;;;;;;;;;5065168;28;20279;-83
2022/08/02 13:55:29;;;;;;;2.70;2.17;;;;;;;;;;5055391;28;20228;-82
2022/08/02 13:57:57;;;;;;;4.90;2.30;;;;;;;;;;5065106;28;20285;-83
2022/08/02 14:00:26;;;;;;;4.73;2.30;;;;;;;;;;5060242;28;20219;-81
2022/08/02 14:03:10;;;;;;;3.97;2.43;;;;;;;;;;5056957;28;20241;-78
2022/08/02 14:05:40;;;;;;;3.63;2.03;;;;;;;;;;5061489;28;20209;-81
2022/08/02 14:08:16;;;;;;;2.97;1.97;;;;;;;;;;5056076;28;20250;-81
2022/08/02 14:10:47;;;;;;;2.67;2.07;;;;;;;;;;5061084;28;20203;-82
2022/08/02 14:13:15;;;;;;;5.13;1.70;;;;;;;;;;5067079;28;20295;-81
2022/08/02 14:15:44;;;;;;;7.90;2.37;;;;;;;;;;5064604;28;20293;-81
2022/08/02 14:18:14;;;;;;;2.60;1.93;;;;;;;;;;5066767;28;20206;-84
2022/08/02 14:20:43;;;;;;;3.63;2.80;;;;;;;;;;5064413;28;20223;-80
2022/08/02 14:23:11;;;;;;;2.63;2.13;;;;;;;;;;5067788;28;20199;-80
2022/08/02 14:25:40;;;;;;;2.87;1.47;;;;;;;;;;5061970;28;20253;-81
2022/08/02 14:28:08;;;;;;;2.97;1.50;;;;;;;;;;5058157;28;20212;-81
2022/08/02 14:30:37;;;;;;;0.83;0.73;;;;;;;;;;5067128;28;20229;-82
2022/08/02 14:33:06;;;;;;;1.73;1.43;;;;;;;;;;5054731;28;20245;-81
2022/08/02 14:35:35;;;;;;;2.10;1.57;;;;;;;;;;5060612;28;20226;-81
2022/08/02 14:38:04;;;;;;;5.07;1.80;;;;;;;;;;5053290;28;20220;-79
2022/08/02 14:40:32;;;;;;;5.33;1.53;;;;;;;;;;5070444;28;20208;-82
2022/08/02 14:43:01;;;;;;;0.73;0.67;;;;;;;;;;5057911;28;20198;-81
2022/08/02 14:45:30;;;;;;;6.37;1.60;;;;;;;;;;5068878;28;20195;-80
2022/08/02 14:48:08;;;;;;;2.00;0.80;;;;;;;;;;5059877;28;20206;-80
2022/08/02 14:50:38;;;;;;;4.20;2.23;;;;;;;;;;5064366;28;20199;-80
2022/08/02 14:53:06;;;;;;;3.03;1.53;;;;;;;;;;5051932;28;20210;-80
2022/08/02 14:55:40;;;;;;;5.10;2.17;;;;;;;;;;5052656;28;20203;-80
2022/08/02 14:58:08;;;;;;;4.30;2.27;;;;;;;;;;5052019;28;20187;-80
2022/08/02 15:00:37;;;;;;;5.70;2.30;;;;;;;;;;5052079;28;20259;-81
2022/08/02 15:03:08;;;;;;;2.80;0.90;;;;;;;;;;5070419;28;20229;-81
2022/08/02 15:05:38;;;;;;;5.00;1.73;;;;;;;;;;5088759;28;20294;-81
2022/08/02 15:08:06;;;;;;;2.03;1.37;;;;;;;;;;5071703;28;20208;-81
2022/08/02 15:10:35;;;;;;;5.03;1.93;;;;;;;;;;5072706;28;20202;-81
2022/08/02 15:13:03;;;;;;;1.33;1.23;;;;;;;;;;5055512;28;20200;-81